sensor_id;sensor_type;location;lat;lon;timestamp;temperature;humidity
5358;DHT22;2702;51.014;7.170;2023-06-05T00:00:24;15.90;99.90
5358;DHT22;2702;51.014;7.170;2023-06-05T00:02:50;16.00;99.90
5358;DHT22;2702;51.014;7.170;2023-06-05T00:05:20;16.10;99.90
5358;DHT22;2702;51.014;7.170;2023-06-05T00:07:47;16.20;99.90
5358;DHT22;2702;51.014;7.170;2023-06-05T00:10:22;16.20;99.90
5358;DHT22;2702;51.014;7.170;2023-06-05T00:12:49;16.10;99.90
5358;DHT22;2702;51.014;7.170;2023-06-05T00:15:16;16.10;99.90
5358;DHT22;2702;51.014;7.170;2023-06-05T00:17:51;16.10;99.90
5358;DHT22;2702;51.014;7.170;2023-06-05T00:20:18;16.10;99.90
5358;DHT22;2702;51.014;7.170;2023-06-05T00:22:44;16.00;99.90
5358;DHT22;2702;51.014;7.170;2023-06-05T00:25:13;15.90;99.90
5358;DHT22;2702;51.014;7.170;2023-06-05T00:27:40;15.80;99.90
5358;DHT22;2702;51.014;7.170;2023-06-05T00:30:08;15.80;99.90
5358;DHT22;2702;51.014;7.170;2023-06-05T00:32:36;15.60;99.90
5358;DHT22;2702;51.014;7.170;2023-06-05T00:35:03;15.60;99.90
5358;DHT22;2702;51.014;7.170;2023-06-05T00:37:33;15.50;99.90
5358;DHT22;2702;51.014;7.170;2023-06-05T00:40:00;15.50;99.90
5358;DHT22;2702;51.014;7.170;2023-06-05T00:42:26;15.40;99.90
5358;DHT22;2702;51.014;7.170;2023-06-05T00:45:05;15.30;99.90
5358;DHT22;2702;51.014;7.170;2023-06-05T00:47:32;15.30;99.90
5358;DHT22;2702;51.014;7.170;2023-06-05T00:50:07;15.20;99.90
5358;DHT22;2702;51.014;7.170;2023-06-05T00:52:34;15.20;99.90
5358;DHT22;2702;51.014;7.170;2023-06-05T00:55:02;15.20;99.90
5358;DHT22;2702;51.014;7.170;2023-06-05T00:57:31;15.20;99.90
5358;DHT22;2702;51.014;7.170;2023-06-05T01:00:01;15.10;99.90
5358;DHT22;2702;51.014;7.170;2023-06-05T01:02:42;15.10;99.90
5358;DHT22;2702;51.014;7.170;2023-06-05T01:05:09;15.00;99.90
5358;DHT22;2702;51.014;7.170;2023-06-05T01:07:36;15.00;99.90
5358;DHT22;2702;51.014;7.170;2023-06-05T01:10:08;15.00;99.90
5358;DHT22;2702;51.014;7.170;2023-06-05T01:12:43;15.00;99.90
5358;DHT22;2702;51.014;7.170;2023-06-05T01:15:12;14.90;99.90
5358;DHT22;2702;51.014;7.170;2023-06-05T01:17:52;14.90;99.90
5358;DHT22;2702;51.014;7.170;2023-06-05T01:20:21;14.90;99.90
5358;DHT22;2702;51.014;7.170;2023-06-05T01:22:49;14.90;99.90
5358;DHT22;2702;51.014;7.170;2023-06-05T01:25:18;14.80;99.90
5358;DHT22;2702;51.014;7.170;2023-06-05T01:27:54;14.80;99.90
5358;DHT22;2702;51.014;7.170;2023-06-05T01:30:54;14.80;99.90
5358;DHT22;2702;51.014;7.170;2023-06-05T01:33:44;14.80;99.90
5358;DHT22;2702;51.014;7.170;2023-06-05T01:36:17;14.70;99.90
5358;DHT22;2702;51.014;7.170;2023-06-05T01:38:52;14.70;99.90
5358;DHT22;2702;51.014;7.170;2023-06-05T01:41:26;14.60;99.90
5358;DHT22;2702;51.014;7.170;2023-06-05T01:44:00;14.60;99.90
5358;DHT22;2702;51.014;7.170;2023-06-05T01:46:31;14.50;99.90
5358;DHT22;2702;51.014;7.170;2023-06-05T01:49:03;14.50;99.90
5358;DHT22;2702;51.014;7.170;2023-06-05T01:51:32;14.50;99.90
5358;DHT22;2702;51.014;7.170;2023-06-05T01:54:00;14.40;99.90
5358;DHT22;2702;51.014;7.170;2023-06-05T01:56:27;14.50;99.90
5358;DHT22;2702;51.014;7.170;2023-06-05T01:59:08;14.50;99.90
5358;DHT22;2702;51.014;7.170;2023-06-05T02:01:35;14.50;99.90
5358;DHT22;2702;51.014;7.170;2023-06-05T02:04:02;14.40;99.90
5358;DHT22;2702;51.014;7.170;2023-06-05T02:06:58;14.50;99.90
5358;DHT22;2702;51.014;7.170;2023-06-05T02:09:29;14.50;99.90
5358;DHT22;2702;51.014;7.170;2023-06-05T02:11:59;14.50;99.90
5358;DHT22;2702;51.014;7.170;2023-06-05T02:14:33;14.40;99.90
5358;DHT22;2702;51.014;7.170;2023-06-05T02:17:05;14.30;99.90
5358;DHT22;2702;51.014;7.170;2023-06-05T02:19:33;14.30;99.90
5358;DHT22;2702;51.014;7.170;2023-06-05T02:22:00;14.20;99.90
5358;DHT22;2702;51.014;7.170;2023-06-05T02:24:27;14.20;99.90
5358;DHT22;2702;51.014;7.170;2023-06-05T02:26:53;14.10;99.90
5358;DHT22;2702;51.014;7.170;2023-06-05T02:29:20;14.20;99.90
5358;DHT22;2702;51.014;7.170;2023-06-05T02:31:48;14.10;99.90
5358;DHT22;2702;51.014;7.170;2023-06-05T02:34:14;14.10;99.90
5358;DHT22;2702;51.014;7.170;2023-06-05T02:36:43;14.00;99.90
5358;DHT22;2702;51.014;7.170;2023-06-05T02:39:12;14.00;99.90
5358;DHT22;2702;51.014;7.170;2023-06-05T02:42:03;13.90;99.90
5358;DHT22;2702;51.014;7.170;2023-06-05T02:44:30;13.90;99.90
5358;DHT22;2702;51.014;7.170;2023-06-05T02:46:57;13.80;99.90
5358;DHT22;2702;51.014;7.170;2023-06-05T02:49:33;13.70;99.90
5358;DHT22;2702;51.014;7.170;2023-06-05T02:52:00;13.70;99.90
5358;DHT22;2702;51.014;7.170;2023-06-05T02:54:29;13.70;99.90
5358;DHT22;2702;51.014;7.170;2023-06-05T02:57:24;13.70;99.90
5358;DHT22;2702;51.014;7.170;2023-06-05T02:59:59;13.60;99.90
5358;DHT22;2702;51.014;7.170;2023-06-05T03:02:29;13.50;99.90
5358;DHT22;2702;51.014;7.170;2023-06-05T03:04:55;13.50;99.90
5358;DHT22;2702;51.014;7.170;2023-06-05T03:07:25;13.50;99.90
5358;DHT22;2702;51.014;7.170;2023-06-05T03:09:54;13.40;99.90
5358;DHT22;2702;51.014;7.170;2023-06-05T03:12:20;13.40;99.90
5358;DHT22;2702;51.014;7.170;2023-06-05T03:14:46;13.40;99.90
5358;DHT22;2702;51.014;7.170;2023-06-05T03:17:13;13.40;99.90
5358;DHT22;2702;51.014;7.170;2023-06-05T03:19:43;13.40;99.90
5358;DHT22;2702;51.014;7.170;2023-06-05T03:22:09;13.40;99.90
5358;DHT22;2702;51.014;7.170;2023-06-05T03:24:38;13.30;99.90
5358;DHT22;2702;51.014;7.170;2023-06-05T03:27:06;13.30;99.90
5358;DHT22;2702;51.014;7.170;2023-06-05T03:29:35;13.30;99.90
5358;DHT22;2702;51.014;7.170;2023-06-05T03:32:02;13.30;99.90
5358;DHT22;2702;51.014;7.170;2023-06-05T03:34:34;13.30;99.90
5358;DHT22;2702;51.014;7.170;2023-06-05T03:37:04;13.40;99.90
5358;DHT22;2702;51.014;7.170;2023-06-05T03:39:34;13.30;99.90
5358;DHT22;2702;51.014;7.170;2023-06-05T03:42:01;13.30;99.90
5358;DHT22;2702;51.014;7.170;2023-06-05T03:44:33;13.20;99.90
5358;DHT22;2702;51.014;7.170;2023-06-05T03:47:01;13.20;99.90
5358;DHT22;2702;51.014;7.170;2023-06-05T03:49:41;13.20;99.90
5358;DHT22;2702;51.014;7.170;2023-06-05T03:52:39;13.20;99.90
5358;DHT22;2702;51.014;7.170;2023-06-05T03:55:07;13.20;99.90
5358;DHT22;2702;51.014;7.170;2023-06-05T03:57:39;13.20;99.90
5358;DHT22;2702;51.014;7.170;2023-06-05T04:00:08;13.20;99.90
5358;DHT22;2702;51.014;7.170;2023-06-05T04:02:49;13.30;99.90
5358;DHT22;2702;51.014;7.170;2023-06-05T04:05:22;13.30;99.90
5358;DHT22;2702;51.014;7.170;2023-06-05T04:07:49;13.30;99.90
5358;DHT22;2702;51.014;7.170;2023-06-05T04:10:16;13.30;99.90
5358;DHT22;2702;51.014;7.170;2023-06-05T04:12:43;13.30;99.90
5358;DHT22;2702;51.014;7.170;2023-06-05T04:15:14;13.20;99.90
5358;DHT22;2702;51.014;7.170;2023-06-05T04:17:42;13.30;99.90
5358;DHT22;2702;51.014;7.170;2023-06-05T04:20:10;13.30;99.90
5358;DHT22;2702;51.014;7.170;2023-06-05T04:22:42;13.30;99.90
5358;DHT22;2702;51.014;7.170;2023-06-05T04:25:10;13.30;99.90
5358;DHT22;2702;51.014;7.170;2023-06-05T04:27:40;13.30;99.90
5358;DHT22;2702;51.014;7.170;2023-06-05T04:30:15;13.20;99.90
5358;DHT22;2702;51.014;7.170;2023-06-05T04:32:44;13.30;99.90
5358;DHT22;2702;51.014;7.170;2023-06-05T04:35:22;13.30;99.90
5358;DHT22;2702;51.014;7.170;2023-06-05T04:37:52;13.40;99.90
5358;DHT22;2702;51.014;7.170;2023-06-05T04:40:20;13.40;99.90
5358;DHT22;2702;51.014;7.170;2023-06-05T04:42:48;13.40;99.90
5358;DHT22;2702;51.014;7.170;2023-06-05T04:45:16;13.40;99.90
5358;DHT22;2702;51.014;7.170;2023-06-05T04:47:49;13.50;99.90
5358;DHT22;2702;51.014;7.170;2023-06-05T04:50:23;13.60;99.90
5358;DHT22;2702;51.014;7.170;2023-06-05T04:53:02;13.60;99.90
5358;DHT22;2702;51.014;7.170;2023-06-05T04:55:28;13.70;99.90
5358;DHT22;2702;51.014;7.170;2023-06-05T04:57:56;13.70;99.90
5358;DHT22;2702;51.014;7.170;2023-06-05T05:00:29;13.70;99.90
5358;DHT22;2702;51.014;7.170;2023-06-05T05:02:58;13.70;99.90
5358;DHT22;2702;51.014;7.170;2023-06-05T05:05:26;13.80;99.90
5358;DHT22;2702;51.014;7.170;2023-06-05T05:08:07;13.90;99.90
5358;DHT22;2702;51.014;7.170;2023-06-05T05:10:33;13.90;99.90
5358;DHT22;2702;51.014;7.170;2023-06-05T05:13:00;14.00;99.90
5358;DHT22;2702;51.014;7.170;2023-06-05T05:15:30;14.10;99.90
5358;DHT22;2702;51.014;7.170;2023-06-05T05:17:59;14.20;99.90
5358;DHT22;2702;51.014;7.170;2023-06-05T05:20:29;14.40;99.90
5358;DHT22;2702;51.014;7.170;2023-06-05T05:23:00;14.40;99.90
5358;DHT22;2702;51.014;7.170;2023-06-05T05:25:26;14.50;99.90
5358;DHT22;2702;51.014;7.170;2023-06-05T05:27:54;14.60;99.90
5358;DHT22;2702;51.014;7.170;2023-06-05T05:30:23;14.60;99.90
5358;DHT22;2702;51.014;7.170;2023-06-05T05:32:49;14.70;99.90
5358;DHT22;2702;51.014;7.170;2023-06-05T05:35:20;14.70;99.90
5358;DHT22;2702;51.014;7.170;2023-06-05T05:37:47;14.80;99.90
5358;DHT22;2702;51.014;7.170;2023-06-05T05:40:13;14.90;99.90
5358;DHT22;2702;51.014;7.170;2023-06-05T05:42:43;15.00;99.90
5358;DHT22;2702;51.014;7.170;2023-06-05T05:45:11;15.00;99.90
5358;DHT22;2702;51.014;7.170;2023-06-05T05:47:37;15.10;99.90
5358;DHT22;2702;51.014;7.170;2023-06-05T05:50:22;15.20;99.90
5358;DHT22;2702;51.014;7.170;2023-06-05T05:52:48;15.40;99.90
5358;DHT22;2702;51.014;7.170;2023-06-05T05:55:17;15.60;99.90
5358;DHT22;2702;51.014;7.170;2023-06-05T05:57:43;15.60;99.90
5358;DHT22;2702;51.014;7.170;2023-06-05T06:00:10;15.80;99.90
5358;DHT22;2702;51.014;7.170;2023-06-05T06:02:39;15.80;99.90
5358;DHT22;2702;51.014;7.170;2023-06-05T06:05:06;16.00;99.90
5358;DHT22;2702;51.014;7.170;2023-06-05T06:07:39;16.00;99.90
5358;DHT22;2702;51.014;7.170;2023-06-05T06:10:17;16.20;99.90
5358;DHT22;2702;51.014;7.170;2023-06-05T06:12:56;16.30;99.90
5358;DHT22;2702;51.014;7.170;2023-06-05T06:15:22;16.40;99.90
5358;DHT22;2702;51.014;7.170;2023-06-05T06:17:52;16.40;99.90
5358;DHT22;2702;51.014;7.170;2023-06-05T06:20:18;16.60;99.90
5358;DHT22;2702;51.014;7.170;2023-06-05T06:22:45;16.70;99.90
5358;DHT22;2702;51.014;7.170;2023-06-05T06:25:12;16.80;99.90
5358;DHT22;2702;51.014;7.170;2023-06-05T06:27:43;17.00;99.90
5358;DHT22;2702;51.014;7.170;2023-06-05T06:30:15;17.20;99.90
5358;DHT22;2702;51.014;7.170;2023-06-05T06:32:51;17.30;99.90
5358;DHT22;2702;51.014;7.170;2023-06-05T06:35:17;17.50;99.90
5358;DHT22;2702;51.014;7.170;2023-06-05T06:37:48;17.60;99.90
5358;DHT22;2702;51.014;7.170;2023-06-05T06:40:14;17.90;99.90
5358;DHT22;2702;51.014;7.170;2023-06-05T06:42:42;18.10;99.90
5358;DHT22;2702;51.014;7.170;2023-06-05T06:45:20;18.10;99.90
5358;DHT22;2702;51.014;7.170;2023-06-05T06:47:50;18.10;99.90
5358;DHT22;2702;51.014;7.170;2023-06-05T06:50:37;18.30;99.90
5358;DHT22;2702;51.014;7.170;2023-06-05T06:53:04;18.40;99.90
5358;DHT22;2702;51.014;7.170;2023-06-05T06:55:30;18.60;99.90
5358;DHT22;2702;51.014;7.170;2023-06-05T06:57:58;18.80;99.90
5358;DHT22;2702;51.014;7.170;2023-06-05T07:00:25;18.90;99.90
5358;DHT22;2702;51.014;7.170;2023-06-05T07:02:52;19.00;99.90
5358;DHT22;2702;51.014;7.170;2023-06-05T07:05:19;19.30;99.90
5358;DHT22;2702;51.014;7.170;2023-06-05T07:07:46;19.50;99.90
5358;DHT22;2702;51.014;7.170;2023-06-05T07:10:12;19.70;99.90
5358;DHT22;2702;51.014;7.170;2023-06-05T07:12:45;19.90;99.90
5358;DHT22;2702;51.014;7.170;2023-06-05T07:15:11;20.00;99.90
5358;DHT22;2702;51.014;7.170;2023-06-05T07:17:37;20.20;99.90
5358;DHT22;2702;51.014;7.170;2023-06-05T07:20:04;20.30;99.90
5358;DHT22;2702;51.014;7.170;2023-06-05T07:26:11;20.60;99.90
5358;DHT22;2702;51.014;7.170;2023-06-05T07:28:42;20.80;99.90
5358;DHT22;2702;51.014;7.170;2023-06-05T07:31:09;20.90;99.90
5358;DHT22;2702;51.014;7.170;2023-06-05T07:33:36;21.10;99.90
5358;DHT22;2702;51.014;7.170;2023-06-05T07:36:02;21.00;99.90
5358;DHT22;2702;51.014;7.170;2023-06-05T07:38:29;21.20;99.90
5358;DHT22;2702;51.014;7.170;2023-06-05T07:40:55;21.40;99.90
5358;DHT22;2702;51.014;7.170;2023-06-05T07:43:28;21.40;99.90
5358;DHT22;2702;51.014;7.170;2023-06-05T07:45:54;21.50;99.90
5358;DHT22;2702;51.014;7.170;2023-06-05T07:48:21;21.60;99.90
5358;DHT22;2702;51.014;7.170;2023-06-05T07:50:47;21.80;99.90
5358;DHT22;2702;51.014;7.170;2023-06-05T07:53:22;22.00;99.90
5358;DHT22;2702;51.014;7.170;2023-06-05T07:55:49;22.20;99.90
5358;DHT22;2702;51.014;7.170;2023-06-05T07:58:18;22.40;99.90
5358;DHT22;2702;51.014;7.170;2023-06-05T08:00:54;22.60;99.90
5358;DHT22;2702;51.014;7.170;2023-06-05T08:03:23;22.80;99.90
5358;DHT22;2702;51.014;7.170;2023-06-05T08:05:49;22.90;99.90
5358;DHT22;2702;51.014;7.170;2023-06-05T08:08:17;23.00;99.90
5358;DHT22;2702;51.014;7.170;2023-06-05T08:10:44;23.20;99.90
5358;DHT22;2702;51.014;7.170;2023-06-05T08:13:11;23.40;99.90
5358;DHT22;2702;51.014;7.170;2023-06-05T08:15:37;23.40;99.90
5358;DHT22;2702;51.014;7.170;2023-06-05T08:18:04;23.40;99.90
5358;DHT22;2702;51.014;7.170;2023-06-05T08:23:50;23.30;99.90
5358;DHT22;2702;51.014;7.170;2023-06-05T08:26:20;23.30;99.90
5358;DHT22;2702;51.014;7.170;2023-06-05T08:28:51;23.40;99.90
5358;DHT22;2702;51.014;7.170;2023-06-05T08:31:17;23.40;99.90
5358;DHT22;2702;51.014;7.170;2023-06-05T08:33:47;23.40;99.90
5358;DHT22;2702;51.014;7.170;2023-06-05T08:36:14;23.60;99.90
5358;DHT22;2702;51.014;7.170;2023-06-05T08:38:47;23.70;99.90
5358;DHT22;2702;51.014;7.170;2023-06-05T08:41:18;23.80;99.90
5358;DHT22;2702;51.014;7.170;2023-06-05T08:43:48;23.80;99.90
5358;DHT22;2702;51.014;7.170;2023-06-05T08:46:15;23.90;99.90
5358;DHT22;2702;51.014;7.170;2023-06-05T08:48:47;23.80;99.90
5358;DHT22;2702;51.014;7.170;2023-06-05T08:51:18;23.70;99.90
5358;DHT22;2702;51.014;7.170;2023-06-05T08:53:59;23.70;99.90
5358;DHT22;2702;51.014;7.170;2023-06-05T08:56:31;23.50;99.90
5358;DHT22;2702;51.014;7.170;2023-06-05T08:58:58;23.60;99.90
5358;DHT22;2702;51.014;7.170;2023-06-05T09:01:24;23.70;99.90
5358;DHT22;2702;51.014;7.170;2023-06-05T09:03:54;23.80;99.90
5358;DHT22;2702;51.014;7.170;2023-06-05T09:06:24;23.80;99.90
5358;DHT22;2702;51.014;7.170;2023-06-05T09:08:54;23.90;99.90
5358;DHT22;2702;51.014;7.170;2023-06-05T09:13:49;23.80;99.90
5358;DHT22;2702;51.014;7.170;2023-06-05T09:16:20;23.60;99.90
5358;DHT22;2702;51.014;7.170;2023-06-05T09:18:57;23.90;99.90
5358;DHT22;2702;51.014;7.170;2023-06-05T09:21:25;24.10;99.90
5358;DHT22;2702;51.014;7.170;2023-06-05T09:29:43;24.20;99.90
5358;DHT22;2702;51.014;7.170;2023-06-05T09:32:16;24.70;99.90
5358;DHT22;2702;51.014;7.170;2023-06-05T09:34:56;24.80;99.90
5358;DHT22;2702;51.014;7.170;2023-06-05T09:37:39;25.10;99.90
5358;DHT22;2702;51.014;7.170;2023-06-05T09:40:11;25.40;99.90
5358;DHT22;2702;51.014;7.170;2023-06-05T09:42:41;25.60;99.90
5358;DHT22;2702;51.014;7.170;2023-06-05T09:48:14;25.60;99.90
5358;DHT22;2702;51.014;7.170;2023-06-05T09:50:41;25.90;99.90
5358;DHT22;2702;51.014;7.170;2023-06-05T09:53:15;26.10;99.90
5358;DHT22;2702;51.014;7.170;2023-06-05T09:55:43;25.90;99.90
5358;DHT22;2702;51.014;7.170;2023-06-05T09:58:12;26.20;99.90
5358;DHT22;2702;51.014;7.170;2023-06-05T10:00:59;26.50;99.90
5358;DHT22;2702;51.014;7.170;2023-06-05T10:03:29;26.60;99.90
5358;DHT22;2702;51.014;7.170;2023-06-05T10:06:03;26.90;99.90
5358;DHT22;2702;51.014;7.170;2023-06-05T10:08:32;26.80;99.90
5358;DHT22;2702;51.014;7.170;2023-06-05T10:10:58;26.60;99.90
5358;DHT22;2702;51.014;7.170;2023-06-05T10:13:27;26.50;99.90
5358;DHT22;2702;51.014;7.170;2023-06-05T10:16:19;26.60;99.90
5358;DHT22;2702;51.014;7.170;2023-06-05T10:18:47;26.70;99.90
5358;DHT22;2702;51.014;7.170;2023-06-05T10:21:35;26.80;99.90
5358;DHT22;2702;51.014;7.170;2023-06-05T10:24:07;27.20;99.90
5358;DHT22;2702;51.014;7.170;2023-06-05T10:33:02;27.90;99.90
5358;DHT22;2702;51.014;7.170;2023-06-05T10:35:42;28.00;99.90
5358;DHT22;2702;51.014;7.170;2023-06-05T10:38:27;27.70;99.90
5358;DHT22;2702;51.014;7.170;2023-06-05T10:40:59;27.60;99.90
5358;DHT22;2702;51.014;7.170;2023-06-05T10:43:49;27.60;99.90
5358;DHT22;2702;51.014;7.170;2023-06-05T10:46:37;27.80;99.90
5358;DHT22;2702;51.014;7.170;2023-06-05T10:54:08;27.60;99.90
5358;DHT22;2702;51.014;7.170;2023-06-05T10:56:54;27.50;99.90
5358;DHT22;2702;51.014;7.170;2023-06-05T11:02:23;27.60;99.90
5358;DHT22;2702;51.014;7.170;2023-06-05T11:07:28;28.20;99.90
5358;DHT22;2702;51.014;7.170;2023-06-05T11:10:17;28.40;99.90
5358;DHT22;2702;51.014;7.170;2023-06-05T11:13:11;28.60;99.90
5358;DHT22;2702;51.014;7.170;2023-06-05T11:15:43;29.00;99.90
5358;DHT22;2702;51.014;7.170;2023-06-05T11:18:28;29.30;99.90
5358;DHT22;2702;51.014;7.170;2023-06-05T11:21:00;29.40;99.90
5358;DHT22;2702;51.014;7.170;2023-06-05T11:23:27;29.70;99.90
5358;DHT22;2702;51.014;7.170;2023-06-05T11:25:56;30.00;99.90
5358;DHT22;2702;51.014;7.170;2023-06-05T11:28:44;30.00;99.90
5358;DHT22;2702;51.014;7.170;2023-06-05T11:31:11;29.90;99.90
5358;DHT22;2702;51.014;7.170;2023-06-05T11:33:39;29.80;99.90
5358;DHT22;2702;51.014;7.170;2023-06-05T11:36:06;29.70;99.90
5358;DHT22;2702;51.014;7.170;2023-06-05T11:38:38;29.20;99.90
5358;DHT22;2702;51.014;7.170;2023-06-05T11:41:06;29.00;99.90
5358;DHT22;2702;51.014;7.170;2023-06-05T11:43:42;29.00;99.90
5358;DHT22;2702;51.014;7.170;2023-06-05T11:46:36;28.60;99.90
5358;DHT22;2702;51.014;7.170;2023-06-05T11:49:04;28.50;99.90
5358;DHT22;2702;51.014;7.170;2023-06-05T11:51:49;28.30;99.90
5358;DHT22;2702;51.014;7.170;2023-06-05T11:54:51;28.00;99.90
5358;DHT22;2702;51.014;7.170;2023-06-05T11:57:51;28.30;99.90
5358;DHT22;2702;51.014;7.170;2023-06-05T12:00:23;28.60;99.90
5358;DHT22;2702;51.014;7.170;2023-06-05T12:02:51;28.60;99.90
5358;DHT22;2702;51.014;7.170;2023-06-05T12:05:22;28.90;99.90
5358;DHT22;2702;51.014;7.170;2023-06-05T12:07:58;29.00;99.90
5358;DHT22;2702;51.014;7.170;2023-06-05T12:10:46;29.20;99.90
5358;DHT22;2702;51.014;7.170;2023-06-05T12:14:11;29.40;99.90
5358;DHT22;2702;51.014;7.170;2023-06-05T12:16:39;29.70;99.90
5358;DHT22;2702;51.014;7.170;2023-06-05T12:19:26;29.90;99.90
5358;DHT22;2702;51.014;7.170;2023-06-05T12:22:18;30.10;99.90
5358;DHT22;2702;51.014;7.170;2023-06-05T12:24:45;30.20;99.90
5358;DHT22;2702;51.014;7.170;2023-06-05T12:27:12;30.10;99.90
5358;DHT22;2702;51.014;7.170;2023-06-05T12:30:01;29.70;99.90
5358;DHT22;2702;51.014;7.170;2023-06-05T12:32:28;29.70;99.90
5358;DHT22;2702;51.014;7.170;2023-06-05T12:34:54;29.80;99.90
5358;DHT22;2702;51.014;7.170;2023-06-05T12:37:22;29.60;99.90
5358;DHT22;2702;51.014;7.170;2023-06-05T12:40:00;29.50;99.90
5358;DHT22;2702;51.014;7.170;2023-06-05T12:42:28;28.80;99.90
5358;DHT22;2702;51.014;7.170;2023-06-05T12:45:03;28.40;99.90
5358;DHT22;2702;51.014;7.170;2023-06-05T12:47:33;28.00;99.90
5358;DHT22;2702;51.014;7.170;2023-06-05T12:50:06;27.90;99.90
5358;DHT22;2702;51.014;7.170;2023-06-05T12:52:33;28.30;99.90
5358;DHT22;2702;51.014;7.170;2023-06-05T12:55:16;28.10;99.90
5358;DHT22;2702;51.014;7.170;2023-06-05T12:57:49;28.10;99.90
5358;DHT22;2702;51.014;7.170;2023-06-05T13:00:32;28.20;99.90
5358;DHT22;2702;51.014;7.170;2023-06-05T13:03:01;27.90;99.90
5358;DHT22;2702;51.014;7.170;2023-06-05T13:05:30;27.60;99.90
5358;DHT22;2702;51.014;7.170;2023-06-05T13:08:00;27.60;99.90
5358;DHT22;2702;51.014;7.170;2023-06-05T13:10:27;27.40;99.90
5358;DHT22;2702;51.014;7.170;2023-06-05T13:12:53;27.30;99.90
5358;DHT22;2702;51.014;7.170;2023-06-05T13:15:23;27.20;99.90
5358;DHT22;2702;51.014;7.170;2023-06-05T13:18:08;26.90;99.90
5358;DHT22;2702;51.014;7.170;2023-06-05T13:20:35;27.00;99.90
5358;DHT22;2702;51.014;7.170;2023-06-05T13:23:02;26.50;99.90
5358;DHT22;2702;51.014;7.170;2023-06-05T13:25:31;26.40;99.90
5358;DHT22;2702;51.014;7.170;2023-06-05T13:27:58;26.50;99.90
5358;DHT22;2702;51.014;7.170;2023-06-05T13:30:30;26.60;99.90
5358;DHT22;2702;51.014;7.170;2023-06-05T13:32:57;27.00;99.90
5358;DHT22;2702;51.014;7.170;2023-06-05T13:35:25;27.30;99.90
5358;DHT22;2702;51.014;7.170;2023-06-05T13:37:52;27.40;99.90
5358;DHT22;2702;51.014;7.170;2023-06-05T13:40:18;27.30;99.90
5358;DHT22;2702;51.014;7.170;2023-06-05T13:42:47;27.40;99.90
5358;DHT22;2702;51.014;7.170;2023-06-05T13:45:17;27.30;99.90
5358;DHT22;2702;51.014;7.170;2023-06-05T13:47:43;27.40;99.90
5358;DHT22;2702;51.014;7.170;2023-06-05T13:50:10;27.50;99.90
5358;DHT22;2702;51.014;7.170;2023-06-05T13:52:36;27.30;99.90
5358;DHT22;2702;51.014;7.170;2023-06-05T13:55:12;27.00;99.90
5358;DHT22;2702;51.014;7.170;2023-06-05T13:57:38;26.90;99.90
5358;DHT22;2702;51.014;7.170;2023-06-05T14:00:05;26.90;99.90
5358;DHT22;2702;51.014;7.170;2023-06-05T14:02:33;26.70;99.90
5358;DHT22;2702;51.014;7.170;2023-06-05T14:05:06;26.80;99.90
5358;DHT22;2702;51.014;7.170;2023-06-05T14:07:34;26.90;99.90
5358;DHT22;2702;51.014;7.170;2023-06-05T14:10:01;26.90;99.90
5358;DHT22;2702;51.014;7.170;2023-06-05T14:13:01;26.80;99.90
5358;DHT22;2702;51.014;7.170;2023-06-05T14:15:31;26.70;99.90
5358;DHT22;2702;51.014;7.170;2023-06-05T14:18:06;26.80;99.90
5358;DHT22;2702;51.014;7.170;2023-06-05T14:20:34;26.70;99.90
5358;DHT22;2702;51.014;7.170;2023-06-05T14:23:10;26.90;99.90
5358;DHT22;2702;51.014;7.170;2023-06-05T14:25:37;27.00;99.90
5358;DHT22;2702;51.014;7.170;2023-06-05T14:28:03;27.30;99.90
5358;DHT22;2702;51.014;7.170;2023-06-05T14:30:30;27.30;99.90
5358;DHT22;2702;51.014;7.170;2023-06-05T14:32:58;27.20;99.90
5358;DHT22;2702;51.014;7.170;2023-06-05T14:35:24;27.20;99.90
5358;DHT22;2702;51.014;7.170;2023-06-05T14:37:51;27.00;99.90
5358;DHT22;2702;51.014;7.170;2023-06-05T14:40:18;26.80;99.90
5358;DHT22;2702;51.014;7.170;2023-06-05T14:42:44;27.00;99.90
5358;DHT22;2702;51.014;7.170;2023-06-05T14:45:26;27.00;99.90
5358;DHT22;2702;51.014;7.170;2023-06-05T14:47:53;27.10;99.90
5358;DHT22;2702;51.014;7.170;2023-06-05T14:50:22;26.90;99.90
5358;DHT22;2702;51.014;7.170;2023-06-05T14:52:49;26.60;99.90
5358;DHT22;2702;51.014;7.170;2023-06-05T14:55:19;26.90;99.90
5358;DHT22;2702;51.014;7.170;2023-06-05T14:57:48;27.20;99.90
5358;DHT22;2702;51.014;7.170;2023-06-05T15:00:17;27.00;99.90
5358;DHT22;2702;51.014;7.170;2023-06-05T15:02:45;26.50;99.90
5358;DHT22;2702;51.014;7.170;2023-06-05T15:05:15;26.60;99.90
5358;DHT22;2702;51.014;7.170;2023-06-05T15:07:52;26.20;99.90
5358;DHT22;2702;51.014;7.170;2023-06-05T15:10:21;26.30;99.90
5358;DHT22;2702;51.014;7.170;2023-06-05T15:12:48;26.70;99.90
5358;DHT22;2702;51.014;7.170;2023-06-05T15:15:14;26.90;99.90
5358;DHT22;2702;51.014;7.170;2023-06-05T15:17:41;26.80;99.90
5358;DHT22;2702;51.014;7.170;2023-06-05T15:20:20;26.50;99.90
5358;DHT22;2702;51.014;7.170;2023-06-05T15:22:47;26.50;99.90
5358;DHT22;2702;51.014;7.170;2023-06-05T15:25:13;26.60;99.90
5358;DHT22;2702;51.014;7.170;2023-06-05T15:27:40;26.70;99.90
5358;DHT22;2702;51.014;7.170;2023-06-05T15:30:07;26.70;99.90
5358;DHT22;2702;51.014;7.170;2023-06-05T15:32:33;26.60;99.90
5358;DHT22;2702;51.014;7.170;2023-06-05T15:35:01;26.60;99.90
5358;DHT22;2702;51.014;7.170;2023-06-05T15:37:28;26.40;99.90
5358;DHT22;2702;51.014;7.170;2023-06-05T15:40:19;26.20;99.90
5358;DHT22;2702;51.014;7.170;2023-06-05T15:42:47;26.20;99.90
5358;DHT22;2702;51.014;7.170;2023-06-05T15:45:30;26.40;99.90
5358;DHT22;2702;51.014;7.170;2023-06-05T15:47:56;26.60;99.90
5358;DHT22;2702;51.014;7.170;2023-06-05T15:50:24;26.60;99.90
5358;DHT22;2702;51.014;7.170;2023-06-05T15:52:52;26.50;99.90
5358;DHT22;2702;51.014;7.170;2023-06-05T15:55:19;26.40;99.90
5358;DHT22;2702;51.014;7.170;2023-06-05T15:57:45;26.40;99.90
5358;DHT22;2702;51.014;7.170;2023-06-05T16:00:26;26.40;99.90
5358;DHT22;2702;51.014;7.170;2023-06-05T16:02:58;26.10;99.90
5358;DHT22;2702;51.014;7.170;2023-06-05T16:05:25;26.30;99.90
5358;DHT22;2702;51.014;7.170;2023-06-05T16:08:01;26.10;99.90
5358;DHT22;2702;51.014;7.170;2023-06-05T16:10:53;26.10;99.90
5358;DHT22;2702;51.014;7.170;2023-06-05T16:13:22;26.00;99.90
5358;DHT22;2702;51.014;7.170;2023-06-05T16:15:59;26.10;99.90
5358;DHT22;2702;51.014;7.170;2023-06-05T16:18:26;26.00;99.90
5358;DHT22;2702;51.014;7.170;2023-06-05T16:20:53;26.10;99.90
5358;DHT22;2702;51.014;7.170;2023-06-05T16:23:23;26.20;99.90
5358;DHT22;2702;51.014;7.170;2023-06-05T16:25:50;26.30;99.90
5358;DHT22;2702;51.014;7.170;2023-06-05T16:28:17;26.10;99.90
5358;DHT22;2702;51.014;7.170;2023-06-05T16:30:47;26.00;99.90
5358;DHT22;2702;51.014;7.170;2023-06-05T16:33:13;26.00;99.90
5358;DHT22;2702;51.014;7.170;2023-06-05T16:35:55;25.60;99.90
5358;DHT22;2702;51.014;7.170;2023-06-05T16:38:24;25.60;99.90
5358;DHT22;2702;51.014;7.170;2023-06-05T16:41:15;25.40;99.90
5358;DHT22;2702;51.014;7.170;2023-06-05T16:43:57;25.40;99.90
5358;DHT22;2702;51.014;7.170;2023-06-05T16:46:23;25.30;99.90
5358;DHT22;2702;51.014;7.170;2023-06-05T16:48:50;25.50;99.90
5358;DHT22;2702;51.014;7.170;2023-06-05T16:51:17;25.60;99.90
5358;DHT22;2702;51.014;7.170;2023-06-05T16:53:44;25.50;99.90
5358;DHT22;2702;51.014;7.170;2023-06-05T16:56:11;25.50;99.90
5358;DHT22;2702;51.014;7.170;2023-06-05T16:58:39;25.30;99.90
5358;DHT22;2702;51.014;7.170;2023-06-05T17:01:05;25.00;99.90
5358;DHT22;2702;51.014;7.170;2023-06-05T17:03:32;25.10;99.90